sensor_id;sensor_type;location;lat;lon;timestamp;pressure;altitude;pressure_sealevel;temperature;humidity
59513;BME280;45330;51.634;5.562;2024-03-07T00:01:23;102504.28;;;4.32;100.00
59513;BME280;45330;51.634;5.562;2024-03-07T00:03:51;102500.00;;;4.33;100.00
59513;BME280;45330;51.634;5.562;2024-03-07T00:06:17;102504.50;;;4.37;100.00
59513;BME280;45330;51.634;5.562;2024-03-07T00:08:42;102507.16;;;4.38;100.00
59513;BME280;45330;51.634;5.562;2024-03-07T00:11:08;102503.69;;;4.38;100.00
59513;BME280;45330;51.634;5.562;2024-03-07T00:13:34;102505.38;;;4.37;100.00
59513;BME280;45330;51.634;5.562;2024-03-07T00:15:59;102507.94;;;4.37;100.00
59513;BME280;45330;51.634;5.562;2024-03-07T00:18:26;102481.31;;;4.19;100.00
59513;BME280;45330;51.634;5.562;2024-03-07T00:20:52;102497.31;;;4.29;100.00
59513;BME280;45330;51.634;5.562;2024-03-07T00:23:20;102510.31;;;4.33;100.00
59513;BME280;45330;51.634;5.562;2024-03-07T00:25:45;102511.88;;;4.29;100.00
59513;BME280;45330;51.634;5.562;2024-03-07T00:28:14;102497.69;;;4.19;100.00
59513;BME280;45330;51.634;5.562;2024-03-07T00:30:42;102508.00;;;4.19;100.00
59513;BME280;45330;51.634;5.562;2024-03-07T00:33:13;102503.50;;;4.15;100.00
59513;BME280;45330;51.634;5.562;2024-03-07T00:35:39;102501.47;;;4.08;100.00
59513;BME280;45330;51.634;5.562;2024-03-07T00:38:04;102504.03;;;4.08;100.00
59513;BME280;45330;51.634;5.562;2024-03-07T00:40:32;102498.72;;;4.05;100.00
59513;BME280;45330;51.634;5.562;2024-03-07T00:42:57;102499.53;;;4.04;100.00
59513;BME280;45330;51.634;5.562;2024-03-07T00:45:24;102501.16;;;4.02;100.00
59513;BME280;45330;51.634;5.562;2024-03-07T00:47:49;102498.44;;;3.99;100.00
59513;BME280;45330;51.634;5.562;2024-03-07T00:50:15;102493.88;;;3.93;100.00
59513;BME280;45330;51.634;5.562;2024-03-07T00:52:41;102493.28;;;3.81;100.00
59513;BME280;45330;51.634;5.562;2024-03-07T00:55:07;102501.88;;;3.81;100.00
59513;BME280;45330;51.634;5.562;2024-03-07T00:57:36;102494.66;;;3.74;100.00
59513;BME280;45330;51.634;5.562;2024-03-07T01:00:02;102490.94;;;3.67;100.00
59513;BME280;45330;51.634;5.562;2024-03-07T01:02:28;102476.56;;;3.54;100.00
59513;BME280;45330;51.634;5.562;2024-03-07T01:04:54;102492.75;;;3.52;100.00
59513;BME280;45330;51.634;5.562;2024-03-07T01:07:20;102488.00;;;3.43;100.00
59513;BME280;45330;51.634;5.562;2024-03-07T01:09:46;102492.94;;;3.38;100.00
59513;BME280;45330;51.634;5.562;2024-03-07T01:12:12;102489.81;;;3.28;100.00
59513;BME280;45330;51.634;5.562;2024-03-07T01:14:37;102488.78;;;3.24;100.00
59513;BME280;45330;51.634;5.562;2024-03-07T01:17:02;102488.56;;;3.19;100.00
59513;BME280;45330;51.634;5.562;2024-03-07T01:19:28;102483.88;;;3.12;100.00
59513;BME280;45330;51.634;5.562;2024-03-07T01:21:53;102481.88;;;3.06;100.00
59513;BME280;45330;51.634;5.562;2024-03-07T01:24:19;102475.72;;;3.03;100.00
59513;BME280;45330;51.634;5.562;2024-03-07T01:26:45;102479.88;;;3.01;100.00
59513;BME280;45330;51.634;5.562;2024-03-07T01:29:11;102474.38;;;2.93;100.00
59513;BME280;45330;51.634;5.562;2024-03-07T01:31:36;102479.34;;;2.90;100.00
59513;BME280;45330;51.634;5.562;2024-03-07T01:34:02;102473.16;;;2.86;100.00
59513;BME280;45330;51.634;5.562;2024-03-07T01:36:27;102478.16;;;2.83;100.00
59513;BME280;45330;51.634;5.562;2024-03-07T01:38:53;102448.09;;;2.66;100.00
59513;BME280;45330;51.634;5.562;2024-03-07T01:41:18;102466.72;;;2.78;100.00
59513;BME280;45330;51.634;5.562;2024-03-07T01:43:44;102467.28;;;2.72;100.00
59513;BME280;45330;51.634;5.562;2024-03-07T01:46:10;102467.94;;;2.68;100.00
59513;BME280;45330;51.634;5.562;2024-03-07T01:48:35;102469.47;;;2.65;100.00
59513;BME280;45330;51.634;5.562;2024-03-07T01:51:01;102474.34;;;2.60;100.00
59513;BME280;45330;51.634;5.562;2024-03-07T01:53:30;102465.53;;;2.55;100.00
59513;BME280;45330;51.634;5.562;2024-03-07T01:55:59;102460.41;;;2.55;100.00
59513;BME280;45330;51.634;5.562;2024-03-07T01:58:25;102458.53;;;2.52;100.00
59513;BME280;45330;51.634;5.562;2024-03-07T02:00:51;102456.59;;;2.48;100.00
59513;BME280;45330;51.634;5.562;2024-03-07T02:03:17;102453.97;;;2.47;100.00
59513;BME280;45330;51.634;5.562;2024-03-07T02:05:43;102447.75;;;2.43;100.00
59513;BME280;45330;51.634;5.562;2024-03-07T02:08:08;102448.50;;;2.40;100.00
59513;BME280;45330;51.634;5.562;2024-03-07T02:10:34;102450.25;;;2.42;100.00
59513;BME280;45330;51.634;5.562;2024-03-07T02:12:59;102450.97;;;2.39;100.00
59513;BME280;45330;51.634;5.562;2024-03-07T02:15:26;102443.09;;;2.36;100.00
59513;BME280;45330;51.634;5.562;2024-03-07T02:17:52;102450.66;;;2.33;100.00
59513;BME280;45330;51.634;5.562;2024-03-07T02:20:17;102444.44;;;2.29;100.00
59513;BME280;45330;51.634;5.562;2024-03-07T02:22:43;102449.50;;;2.28;100.00
59513;BME280;45330;51.634;5.562;2024-03-07T02:25:08;102442.63;;;2.27;100.00
59513;BME280;45330;51.634;5.562;2024-03-07T02:27:37;102447.69;;;2.25;100.00
59513;BME280;45330;51.634;5.562;2024-03-07T02:30:03;102442.56;;;2.25;100.00
59513;BME280;45330;51.634;5.562;2024-03-07T02:32:31;102445.84;;;2.22;100.00
59513;BME280;45330;51.634;5.562;2024-03-07T02:34:56;102431.78;;;2.16;100.00
59513;BME280;45330;51.634;5.562;2024-03-07T02:37:22;102427.34;;;2.13;100.00
59513;BME280;45330;51.634;5.562;2024-03-07T02:39:47;102437.97;;;2.19;100.00
59513;BME280;45330;51.634;5.562;2024-03-07T02:42:13;102434.25;;;2.14;100.00
59513;BME280;45330;51.634;5.562;2024-03-07T02:44:38;102436.91;;;2.16;100.00
59513;BME280;45330;51.634;5.562;2024-03-07T02:47:08;102416.75;;;2.07;100.00
59513;BME280;45330;51.634;5.562;2024-03-07T02:49:33;102436.03;;;2.15;100.00
59513;BME280;45330;51.634;5.562;2024-03-07T02:51:58;102434.41;;;2.17;100.00
59513;BME280;45330;51.634;5.562;2024-03-07T02:54:24;102435.41;;;2.19;100.00
59513;BME280;45330;51.634;5.562;2024-03-07T02:56:49;102441.25;;;2.17;100.00
59513;BME280;45330;51.634;5.562;2024-03-07T02:59:15;102429.13;;;2.14;100.00
59513;BME280;45330;51.634;5.562;2024-03-07T03:01:41;102423.44;;;2.20;100.00
59513;BME280;45330;51.634;5.562;2024-03-07T03:04:07;102428.00;;;2.26;100.00
59513;BME280;45330;51.634;5.562;2024-03-07T03:06:32;102422.97;;;2.27;100.00
59513;BME280;45330;51.634;5.562;2024-03-07T03:08:58;102420.06;;;2.21;100.00
59513;BME280;45330;51.634;5.562;2024-03-07T03:11:24;102432.16;;;2.23;100.00
59513;BME280;45330;51.634;5.562;2024-03-07T03:13:51;102426.88;;;2.20;100.00
59513;BME280;45330;51.634;5.562;2024-03-07T03:16:16;102424.47;;;2.23;100.00
59513;BME280;45330;51.634;5.562;2024-03-07T03:18:42;102418.22;;;2.18;100.00
59513;BME280;45330;51.634;5.562;2024-03-07T03:21:07;102404.88;;;2.09;100.00
59513;BME280;45330;51.634;5.562;2024-03-07T03:23:32;102416.28;;;2.14;100.00
59513;BME280;45330;51.634;5.562;2024-03-07T03:25:58;102420.63;;;2.15;100.00
59513;BME280;45330;51.634;5.562;2024-03-07T03:28:24;102414.50;;;2.13;100.00
59513;BME280;45330;51.634;5.562;2024-03-07T03:30:50;102411.22;;;2.16;100.00
59513;BME280;45330;51.634;5.562;2024-03-07T03:33:19;102405.22;;;2.15;100.00
59513;BME280;45330;51.634;5.562;2024-03-07T03:35:46;102412.91;;;2.15;100.00
59513;BME280;45330;51.634;5.562;2024-03-07T03:38:11;102406.25;;;2.19;100.00
59513;BME280;45330;51.634;5.562;2024-03-07T03:40:37;102408.81;;;2.19;100.00
59513;BME280;45330;51.634;5.562;2024-03-07T03:43:02;102401.09;;;2.19;100.00
59513;BME280;45330;51.634;5.562;2024-03-07T03:45:28;102390.75;;;2.17;100.00
59513;BME280;45330;51.634;5.562;2024-03-07T03:47:53;102396.22;;;2.23;100.00
59513;BME280;45330;51.634;5.562;2024-03-07T03:50:19;102390.84;;;2.19;100.00
59513;BME280;45330;51.634;5.562;2024-03-07T03:52:45;102376.06;;;2.15;100.00
59513;BME280;45330;51.634;5.562;2024-03-07T03:55:10;102384.03;;;2.19;100.00
59513;BME280;45330;51.634;5.562;2024-03-07T03:57:40;102389.88;;;2.17;100.00
59513;BME280;45330;51.634;5.562;2024-03-07T04:00:08;102386.41;;;2.16;100.00
59513;BME280;45330;51.634;5.562;2024-03-07T04:02:46;102393.47;;;2.20;100.00
59513;BME280;45330;51.634;5.562;2024-03-07T04:05:16;102384.66;;;2.15;100.00
59513;BME280;45330;51.634;5.562;2024-03-07T04:07:42;102390.59;;;2.14;100.00
59513;BME280;45330;51.634;5.562;2024-03-07T04:10:09;102387.13;;;2.14;100.00
59513;BME280;45330;51.634;5.562;2024-03-07T04:12:36;102393.31;;;2.17;100.00
59513;BME280;45330;51.634;5.562;2024-03-07T04:15:06;102383.94;;;2.18;100.00
59513;BME280;45330;51.634;5.562;2024-03-07T04:17:35;102388.34;;;2.20;100.00
59513;BME280;45330;51.634;5.562;2024-03-07T04:20:02;102391.81;;;2.21;100.00
59513;BME280;45330;51.634;5.562;2024-03-07T04:22:34;102393.47;;;2.20;100.00
59513;BME280;45330;51.634;5.562;2024-03-07T04:25:00;102389.81;;;2.15;100.00
59513;BME280;45330;51.634;5.562;2024-03-07T04:27:26;102393.25;;;2.16;100.00
59513;BME280;45330;51.634;5.562;2024-03-07T04:29:52;102374.44;;;2.00;100.00
59513;BME280;45330;51.634;5.562;2024-03-07T04:32:18;102393.88;;;2.12;100.00
59513;BME280;45330;51.634;5.562;2024-03-07T04:34:44;102393.16;;;2.14;100.00
59513;BME280;45330;51.634;5.562;2024-03-07T04:37:09;102376.31;;;2.03;100.00
59513;BME280;45330;51.634;5.562;2024-03-07T04:39:34;102400.63;;;2.10;100.00
59513;BME280;45330;51.634;5.562;2024-03-07T04:42:03;102386.03;;;2.09;100.00
59513;BME280;45330;51.634;5.562;2024-03-07T04:44:30;102387.44;;;2.03;100.00
59513;BME280;45330;51.634;5.562;2024-03-07T04:46:56;102388.16;;;2.01;100.00
59513;BME280;45330;51.634;5.562;2024-03-07T04:49:23;102386.50;;;2.01;100.00
59513;BME280;45330;51.634;5.562;2024-03-07T04:51:53;102389.00;;;2.00;100.00
59513;BME280;45330;51.634;5.562;2024-03-07T04:54:19;102383.84;;;2.00;100.00
59513;BME280;45330;51.634;5.562;2024-03-07T04:56:45;102385.66;;;2.02;100.00
59513;BME280;45330;51.634;5.562;2024-03-07T04:59:12;102371.66;;;1.96;100.00
59513;BME280;45330;51.634;5.562;2024-03-07T05:01:38;102382.06;;;1.99;100.00
59513;BME280;45330;51.634;5.562;2024-03-07T05:04:04;102381.09;;;1.97;100.00
59513;BME280;45330;51.634;5.562;2024-03-07T05:06:31;102389.34;;;1.91;100.00
59513;BME280;45330;51.634;5.562;2024-03-07T05:09:02;102393.44;;;1.87;100.00
59513;BME280;45330;51.634;5.562;2024-03-07T05:11:29;102387.41;;;1.87;100.00
59513;BME280;45330;51.634;5.562;2024-03-07T05:13:55;102380.09;;;1.78;100.00
59513;BME280;45330;51.634;5.562;2024-03-07T05:16:20;102390.72;;;1.84;100.00
59513;BME280;45330;51.634;5.562;2024-03-07T05:18:46;102393.38;;;1.86;100.00
59513;BME280;45330;51.634;5.562;2024-03-07T05:21:12;102385.75;;;1.87;100.00
59513;BME280;45330;51.634;5.562;2024-03-07T05:23:56;102392.66;;;1.88;100.00
59513;BME280;45330;51.634;5.562;2024-03-07T05:26:23;102393.53;;;1.89;100.00
59513;BME280;45330;51.634;5.562;2024-03-07T05:28:48;102386.78;;;1.91;100.00
59513;BME280;45330;51.634;5.562;2024-03-07T05:31:13;102393.78;;;1.94;100.00
59513;BME280;45330;51.634;5.562;2024-03-07T05:33:39;102393.78;;;1.94;100.00
59513;BME280;45330;51.634;5.562;2024-03-07T05:36:06;102384.13;;;1.89;100.00
59513;BME280;45330;51.634;5.562;2024-03-07T05:38:44;102388.31;;;1.87;100.00
59513;BME280;45330;51.634;5.562;2024-03-07T05:41:13;102394.41;;;1.89;100.00
59513;BME280;45330;51.634;5.562;2024-03-07T05:43:39;102381.25;;;1.83;100.00
59513;BME280;45330;51.634;5.562;2024-03-07T05:46:05;102391.75;;;1.88;100.00
59513;BME280;45330;51.634;5.562;2024-03-07T05:48:32;102382.03;;;1.82;100.00
59513;BME280;45330;51.634;5.562;2024-03-07T05:50:58;102396.81;;;1.86;100.00
59513;BME280;45330;51.634;5.562;2024-03-07T05:53:24;102389.75;;;1.82;100.00
59513;BME280;45330;51.634;5.562;2024-03-07T05:55:50;102390.72;;;1.84;100.00
59513;BME280;45330;51.634;5.562;2024-03-07T05:58:16;102386.38;;;1.83;100.00
59513;BME280;45330;51.634;5.562;2024-03-07T06:00:45;102388.94;;;1.83;100.00
59513;BME280;45330;51.634;5.562;2024-03-07T06:03:18;102388.94;;;1.83;100.00
59513;BME280;45330;51.634;5.562;2024-03-07T06:05:45;102386.22;;;1.80;100.00
59513;BME280;45330;51.634;5.562;2024-03-07T06:08:14;102389.56;;;1.79;100.00
59513;BME280;45330;51.634;5.562;2024-03-07T06:10:42;102381.88;;;1.79;100.00
59513;BME280;45330;51.634;5.562;2024-03-07T06:13:07;102380.72;;;1.74;100.00
59513;BME280;45330;51.634;5.562;2024-03-07T06:15:33;102377.38;;;1.75;100.00
59513;BME280;45330;51.634;5.562;2024-03-07T06:17:59;102389.75;;;1.82;100.00
59513;BME280;45330;51.634;5.562;2024-03-07T06:20:25;102379.94;;;1.75;100.00
59513;BME280;45330;51.634;5.562;2024-03-07T06:22:51;102387.88;;;1.80;100.00
59513;BME280;45330;51.634;5.562;2024-03-07T06:25:20;102392.78;;;1.75;100.00
59513;BME280;45330;51.634;5.562;2024-03-07T06:27:58;102373.50;;;1.67;100.00
59513;BME280;45330;51.634;5.562;2024-03-07T06:30:24;102390.19;;;1.75;100.00
59513;BME280;45330;51.634;5.562;2024-03-07T06:32:51;102379.69;;;1.70;100.00
59513;BME280;45330;51.634;5.562;2024-03-07T06:35:16;102378.78;;;1.70;100.00
59513;BME280;45330;51.634;5.562;2024-03-07T06:37:44;102393.00;;;1.80;100.00
59513;BME280;45330;51.634;5.562;2024-03-07T06:40:10;102365.16;;;1.71;100.00
59513;BME280;45330;51.634;5.562;2024-03-07T06:42:36;102394.16;;;1.85;100.00
59513;BME280;45330;51.634;5.562;2024-03-07T06:45:04;102396.09;;;1.89;100.00
59513;BME280;45330;51.634;5.562;2024-03-07T06:47:31;102389.53;;;1.94;100.00
59513;BME280;45330;51.634;5.562;2024-03-07T06:49:56;102390.56;;;1.98;100.00
59513;BME280;45330;51.634;5.562;2024-03-07T06:52:22;102387.38;;;2.02;100.00
59513;BME280;45330;51.634;5.562;2024-03-07T06:54:47;102372.84;;;2.02;100.00
59513;BME280;45330;51.634;5.562;2024-03-07T06:57:12;102380.97;;;2.10;100.00
59513;BME280;45330;51.634;5.562;2024-03-07T06:59:38;102384.66;;;2.15;100.00
59513;BME280;45330;51.634;5.562;2024-03-07T07:02:03;102371.00;;;2.16;100.00
59513;BME280;45330;51.634;5.562;2024-03-07T07:04:29;102376.34;;;2.19;100.00
59513;BME280;45330;51.634;5.562;2024-03-07T07:07:07;102375.94;;;2.28;100.00
59513;BME280;45330;51.634;5.562;2024-03-07T07:09:33;102371.81;;;2.32;100.00
59513;BME280;45330;51.634;5.562;2024-03-07T07:12:00;102382.59;;;2.41;100.00
59513;BME280;45330;51.634;5.562;2024-03-07T07:14:28;102378.59;;;2.46;100.00
59513;BME280;45330;51.634;5.562;2024-03-07T07:16:54;102376.09;;;2.48;100.00
59513;BME280;45330;51.634;5.562;2024-03-07T07:19:19;102378.72;;;2.49;100.00
59513;BME280;45330;51.634;5.562;2024-03-07T07:21:44;102371.31;;;2.55;100.00
59513;BME280;45330;51.634;5.562;2024-03-07T07:24:10;102360.75;;;2.49;100.00
59513;BME280;45330;51.634;5.562;2024-03-07T07:26:36;102370.84;;;2.63;100.00
59513;BME280;45330;51.634;5.562;2024-03-07T07:29:01;102369.31;;;2.66;100.00
59513;BME280;45330;51.634;5.562;2024-03-07T07:31:29;102374.03;;;2.75;100.00
59513;BME280;45330;51.634;5.562;2024-03-07T07:33:54;102373.47;;;2.81;100.00
59513;BME280;45330;51.634;5.562;2024-03-07T07:36:20;102370.25;;;2.85;100.00
59513;BME280;45330;51.634;5.562;2024-03-07T07:38:46;102370.47;;;2.89;100.00
59513;BME280;45330;51.634;5.562;2024-03-07T07:41:12;102364.09;;;2.99;100.00
59513;BME280;45330;51.634;5.562;2024-03-07T07:43:39;102357.56;;;3.06;100.00
59513;BME280;45330;51.634;5.562;2024-03-07T07:46:06;102357.06;;;3.13;100.00
59513;BME280;45330;51.634;5.562;2024-03-07T07:48:31;102374.69;;;3.23;100.00
59513;BME280;45330;51.634;5.562;2024-03-07T07:50:56;102364.72;;;3.30;100.00
59513;BME280;45330;51.634;5.562;2024-03-07T07:53:22;102362.34;;;3.34;100.00
59513;BME280;45330;51.634;5.562;2024-03-07T07:55:47;102360.75;;;3.36;100.00
59513;BME280;45330;51.634;5.562;2024-03-07T07:58:14;102363.91;;;3.49;100.00
59513;BME280;45330;51.634;5.562;2024-03-07T08:00:39;102367.66;;;3.55;100.00
59513;BME280;45330;51.634;5.562;2024-03-07T08:03:05;102365.22;;;3.58;100.00
59513;BME280;45330;51.634;5.562;2024-03-07T08:05:39;102367.97;;;3.62;100.00
59513;BME280;45330;51.634;5.562;2024-03-07T08:08:06;102366.53;;;3.68;100.00
59513;BME280;45330;51.634;5.562;2024-03-07T08:10:36;102372.84;;;3.75;100.00
59513;BME280;45330;51.634;5.562;2024-03-07T08:13:03;102372.31;;;3.82;100.00
59513;BME280;45330;51.634;5.562;2024-03-07T08:15:31;102368.88;;;3.82;100.00
59513;BME280;45330;51.634;5.562;2024-03-07T08:17:57;102366.44;;;3.85;100.00
59513;BME280;45330;51.634;5.562;2024-03-07T08:20:24;102371.06;;;3.92;100.00
59513;BME280;45330;51.634;5.562;2024-03-07T08:22:51;102366.09;;;3.97;100.00
59513;BME280;45330;51.634;5.562;2024-03-07T08:25:19;102366.47;;;4.04;100.00
59513;BME280;45330;51.634;5.562;2024-03-07T08:27:47;102366.41;;;4.03;100.00
59513;BME280;45330;51.634;5.562;2024-03-07T08:30:13;102368.44;;;4.10;100.00
59513;BME280;45330;51.634;5.562;2024-03-07T08:32:44;102368.03;;;4.20;100.00
59513;BME280;45330;51.634;5.562;2024-03-07T08:35:10;102371.63;;;4.24;100.00
59513;BME280;45330;51.634;5.562;2024-03-07T08:37:42;102373.47;;;4.26;100.00
59513;BME280;45330;51.634;5.562;2024-03-07T08:40:08;102358.88;;;4.27;100.00
59513;BME280;45330;51.634;5.562;2024-03-07T08:42:44;102366.28;;;4.39;100.00
59513;BME280;45330;51.634;5.562;2024-03-07T08:45:10;102375.81;;;4.41;100.00
59513;BME280;45330;51.634;5.562;2024-03-07T08:47:37;102371.78;;;4.46;100.00
59513;BME280;45330;51.634;5.562;2024-03-07T08:50:04;102360.72;;;4.49;100.00
59513;BME280;45330;51.634;5.562;2024-03-07T08:52:34;102370.59;;;4.59;100.00
59513;BME280;45330;51.634;5.562;2024-03-07T08:55:02;102358.06;;;4.67;100.00
59513;BME280;45330;51.634;5.562;2024-03-07T08:57:28;102358.31;;;4.73;100.00
59513;BME280;45330;51.634;5.562;2024-03-07T08:59:53;102358.34;;;4.75;100.00
59513;BME280;45330;51.634;5.562;2024-03-07T09:02:18;102329.63;;;4.66;100.00
59513;BME280;45330;51.634;5.562;2024-03-07T09:04:44;102341.47;;;4.81;100.00
59513;BME280;45330;51.634;5.562;2024-03-07T09:07:09;102347.59;;;4.85;100.00
59513;BME280;45330;51.634;5.562;2024-03-07T09:09:35;102346.78;;;4.86;100.00
59513;BME280;45330;51.634;5.562;2024-03-07T09:12:01;102345.88;;;4.84;100.00
59513;BME280;45330;51.634;5.562;2024-03-07T09:14:28;102331.59;;;4.92;100.00
59513;BME280;45330;51.634;5.562;2024-03-07T09:16:54;102308.78;;;4.82;100.00
59513;BME280;45330;51.634;5.562;2024-03-07T09:19:19;102333.78;;;5.04;100.00
59513;BME280;45330;51.634;5.562;2024-03-07T09:21:46;102332.28;;;5.09;100.00
59513;BME280;45330;51.634;5.562;2024-03-07T09:24:12;102331.25;;;5.06;100.00
59513;BME280;45330;51.634;5.562;2024-03-07T09:26:38;102336.91;;;5.18;100.00
59513;BME280;45330;51.634;5.562;2024-03-07T09:29:03;102339.16;;;5.31;100.00
59513;BME280;45330;51.634;5.562;2024-03-07T09:31:32;102340.28;;;5.38;100.00
59513;BME280;45330;51.634;5.562;2024-03-07T09:33:57;102324.03;;;5.41;100.00
59513;BME280;45330;51.634;5.562;2024-03-07T09:36:24;102322.59;;;5.47;100.00
59513;BME280;45330;51.634;5.562;2024-03-07T09:38:49;102333.44;;;5.61;100.00
59513;BME280;45330;51.634;5.562;2024-03-07T09:41:15;102336.91;;;5.62;100.00
59513;BME280;45330;51.634;5.562;2024-03-07T09:43:44;102335.28;;;5.64;100.00
59513;BME280;45330;51.634;5.562;2024-03-07T09:46:12;102324.03;;;5.63;100.00
59513;BME280;45330;51.634;5.562;2024-03-07T09:48:38;102329.31;;;5.66;100.00
59513;BME280;45330;51.634;5.562;2024-03-07T09:51:05;102332.09;;;5.71;100.00
59513;BME280;45330;51.634;5.562;2024-03-07T09:53:33;102322.03;;;5.79;100.00
59513;BME280;45330;51.634;5.562;2024-03-07T09:55:59;102326.63;;;5.86;100.00
59513;BME280;45330;51.634;5.562;2024-03-07T09:58:25;102324.28;;;5.92;100.00
59513;BME280;45330;51.634;5.562;2024-03-07T10:00:52;102321.94;;;5.98;100.00
59513;BME280;45330;51.634;5.562;2024-03-07T10:03:20;102317.59;;;5.97;100.00
59513;BME280;45330;51.634;5.562;2024-03-07T10:05:49;102305.63;;;5.99;100.00
59513;BME280;45330;51.634;5.562;2024-03-07T10:08:15;102304.97;;;6.05;100.00
59513;BME280;45330;51.634;5.562;2024-03-07T10:10:44;102320.84;;;6.16;100.00
59513;BME280;45330;51.634;5.562;2024-03-07T10:13:10;102315.28;;;6.29;100.00
59513;BME280;45330;51.634;5.562;2024-03-07T10:15:35;102310.97;;;6.30;100.00
59513;BME280;45330;51.634;5.562;2024-03-07T10:18:01;102301.69;;;6.35;100.00
59513;BME280;45330;51.634;5.562;2024-03-07T10:20:26;102310.31;;;6.35;100.00
59513;BME280;45330;51.634;5.562;2024-03-07T10:22:52;102283.53;;;6.33;100.00
59513;BME280;45330;51.634;5.562;2024-03-07T10:25:19;102295.91;;;6.42;100.00
59513;BME280;45330;51.634;5.562;2024-03-07T10:27:46;102304.25;;;6.59;100.00
59513;BME280;45330;51.634;5.562;2024-03-07T10:30:15;102303.31;;;6.57;100.00
59513;BME280;45330;51.634;5.562;2024-03-07T10:32:46;102295.66;;;6.60;100.00
59513;BME280;45330;51.634;5.562;2024-03-07T10:35:11;102276.63;;;6.58;100.00
59513;BME280;45330;51.634;5.562;2024-03-07T10:37:40;102291.69;;;6.70;100.00
59513;BME280;45330;51.634;5.562;2024-03-07T10:40:06;102281.19;;;6.65;100.00
59513;BME280;45330;51.634;5.562;2024-03-07T10:42:45;102283.09;;;6.71;100.00
59513;BME280;45330;51.634;5.562;2024-03-07T10:45:18;102282.50;;;6.80;100.00
59513;BME280;45330;51.634;5.562;2024-03-07T10:47:52;102286.19;;;6.86;100.00
59513;BME280;45330;51.634;5.562;2024-03-07T10:53:19;102280.19;;;6.89;100.00
59513;BME280;45330;51.634;5.562;2024-03-07T10:58:27;102278.88;;;7.00;100.00
59513;BME280;45330;51.634;5.562;2024-03-07T11:01:00;102263.34;;;7.00;100.00
59513;BME280;45330;51.634;5.562;2024-03-07T11:03:29;102280.09;;;7.12;100.00
59513;BME280;45330;51.634;5.562;2024-03-07T11:05:59;102272.63;;;7.22;100.00
59513;BME280;45330;51.634;5.562;2024-03-07T11:08:25;102267.31;;;7.18;100.00
59513;BME280;45330;51.634;5.562;2024-03-07T11:10:51;102250.75;;;7.13;100.00
59513;BME280;45330;51.634;5.562;2024-03-07T11:13:17;102271.03;;;7.26;100.00
59513;BME280;45330;51.634;5.562;2024-03-07T11:15:46;102262.66;;;7.35;100.00
59513;BME280;45330;51.634;5.562;2024-03-07T11:18:13;102260.31;;;7.43;100.00
59513;BME280;45330;51.634;5.562;2024-03-07T11:20:40;102258.63;;;7.45;100.00
59513;BME280;45330;51.634;5.562;2024-03-07T11:23:31;102240.75;;;7.52;100.00
59513;BME280;45330;51.634;5.562;2024-03-07T11:26:10;102239.13;;;7.58;100.00
59513;BME280;45330;51.634;5.562;2024-03-07T11:28:38;102249.31;;;7.82;100.00
59513;BME280;45330;51.634;5.562;2024-03-07T11:31:13;102249.78;;;7.99;100.00
59513;BME280;45330;51.634;5.562;2024-03-07T11:33:39;102236.31;;;8.12;100.00
59513;BME280;45330;51.634;5.562;2024-03-07T11:36:09;102242.00;;;8.32;100.00
59513;BME280;45330;51.634;5.562;2024-03-07T11:38:58;102229.28;;;8.41;100.00
59513;BME280;45330;51.634;5.562;2024-03-07T11:41:23;102241.88;;;8.60;100.00
59513;BME280;45330;51.634;5.562;2024-03-07T11:43:52;102233.50;;;8.71;99.76
59513;BME280;45330;51.634;5.562;2024-03-07T11:46:20;102234.25;;;8.66;100.00
59513;BME280;45330;51.634;5.562;2024-03-07T11:48:46;102230.34;;;8.47;99.51
59513;BME280;45330;51.634;5.562;2024-03-07T11:51:13;102226.69;;;8.41;100.00
59513;BME280;45330;51.634;5.562;2024-03-07T11:53:40;102193.75;;;8.37;100.00
59513;BME280;45330;51.634;5.562;2024-03-07T11:56:06;102224.88;;;8.37;100.00
59513;BME280;45330;51.634;5.562;2024-03-07T11:58:44;102217.47;;;8.51;100.00
59513;BME280;45330;51.634;5.562;2024-03-07T12:01:09;102211.75;;;8.66;100.00
59513;BME280;45330;51.634;5.562;2024-03-07T12:03:36;102205.00;;;8.73;100.00
59513;BME280;45330;51.634;5.562;2024-03-07T12:06:03;102192.91;;;8.73;100.00
59513;BME280;45330;51.634;5.562;2024-03-07T12:08:28;102194.63;;;8.73;100.00
59513;BME280;45330;51.634;5.562;2024-03-07T12:10:55;102190.19;;;8.69;100.00
59513;BME280;45330;51.634;5.562;2024-03-07T12:13:22;102193.13;;;8.46;100.00
59513;BME280;45330;51.634;5.562;2024-03-07T12:15:50;102191.19;;;8.39;100.00
59513;BME280;45330;51.634;5.562;2024-03-07T12:18:17;102182.56;;;8.40;100.00
59513;BME280;45330;51.634;5.562;2024-03-07T12:20:46;102173.44;;;8.21;100.00
59513;BME280;45330;51.634;5.562;2024-03-07T12:23:22;102167.81;;;8.37;100.00
59513;BME280;45330;51.634;5.562;2024-03-07T12:26:02;102163.97;;;8.56;100.00
59513;BME280;45330;51.634;5.562;2024-03-07T12:28:28;102164.69;;;8.51;100.00
59513;BME280;45330;51.634;5.562;2024-03-07T12:30:58;102168.81;;;8.43;99.55
59513;BME280;45330;51.634;5.562;2024-03-07T12:33:28;102155.69;;;8.73;100.00
59513;BME280;45330;51.634;5.562;2024-03-07T12:35:56;102162.50;;;9.07;97.01
59513;BME280;45330;51.634;5.562;2024-03-07T12:38:31;102146.50;;;9.29;95.96
59513;BME280;45330;51.634;5.562;2024-03-07T12:41:10;102148.44;;;9.39;94.60
59513;BME280;45330;51.634;5.562;2024-03-07T12:43:40;102142.22;;;9.32;93.86
59513;BME280;45330;51.634;5.562;2024-03-07T12:46:10;102144.34;;;9.07;94.51
59513;BME280;45330;51.634;5.562;2024-03-07T12:48:40;102134.56;;;8.97;94.55
59513;BME280;45330;51.634;5.562;2024-03-07T12:51:05;102121.31;;;8.83;94.68
59513;BME280;45330;51.634;5.562;2024-03-07T12:53:31;102136.69;;;8.74;96.15
59513;BME280;45330;51.634;5.562;2024-03-07T12:55:57;102131.38;;;8.68;97.81